sensor_id;sensor_type;location;lat;lon;timestamp;pressure;altitude;pressure_sealevel;temperature;humidity
9225;BME280;4647;48.072;11.616;2023-01-25T00:00:51;96663.16;;;0.34;89.05
9225;BME280;4647;48.072;11.616;2023-01-25T00:03:19;96656.06;;;0.21;88.96
9225;BME280;4647;48.072;11.616;2023-01-25T00:05:57;96661.38;;;0.12;88.57
9225;BME280;4647;48.072;11.616;2023-01-25T00:08:26;96661.38;;;0.21;88.65
9225;BME280;4647;48.072;11.616;2023-01-25T00:10:54;96662.53;;;0.28;88.42
9225;BME280;4647;48.072;11.616;2023-01-25T00:13:26;96666.69;;;0.12;89.15
9225;BME280;4647;48.072;11.616;2023-01-25T00:16:00;96652.75;;;0.15;89.06
9225;BME280;4647;48.072;11.616;2023-01-25T00:18:28;96664.50;;;0.14;89.08
9225;BME280;4647;48.072;11.616;2023-01-25T00:20:57;96659.31;;;0.09;89.37
9225;BME280;4647;48.072;11.616;2023-01-25T00:23:25;96654.16;;;0.13;89.49
9225;BME280;4647;48.072;11.616;2023-01-25T00:25:56;96651.97;;;0.15;89.65
9225;BME280;4647;48.072;11.616;2023-01-25T00:28:27;96664.19;;;0.16;89.64
9225;BME280;4647;48.072;11.616;2023-01-25T00:33:56;96655.59;;;0.19;89.28
9225;BME280;4647;48.072;11.616;2023-01-25T00:36:40;96651.81;;;0.20;89.30
9225;BME280;4647;48.072;11.616;2023-01-25T00:39:11;96651.19;;;0.23;89.15
9225;BME280;4647;48.072;11.616;2023-01-25T00:41:40;96654.94;;;0.13;89.76
9225;BME280;4647;48.072;11.616;2023-01-25T00:44:11;96644.13;;;0.18;89.63
9225;BME280;4647;48.072;11.616;2023-01-25T00:46:42;96651.50;;;0.13;89.52
9225;BME280;4647;48.072;11.616;2023-01-25T00:49:18;96643.34;;;0.09;89.53
9225;BME280;4647;48.072;11.616;2023-01-25T00:51:48;96655.88;;;0.09;90.04
9225;BME280;4647;48.072;11.616;2023-01-25T00:57:35;96647.09;;;0.08;89.89
9225;BME280;4647;48.072;11.616;2023-01-25T01:00:08;96655.03;;;-0.01;90.08
9225;BME280;4647;48.072;11.616;2023-01-25T01:02:37;96644.75;;;0.07;89.93
9225;BME280;4647;48.072;11.616;2023-01-25T01:05:06;96646.81;;;0.18;89.70
9225;BME280;4647;48.072;11.616;2023-01-25T01:07:35;96659.47;;;0.04;89.80
9225;BME280;4647;48.072;11.616;2023-01-25T01:22:44;96663.44;;;-0.16;89.88
9225;BME280;4647;48.072;11.616;2023-01-25T01:25:12;96657.66;;;-0.18;90.15
9225;BME280;4647;48.072;11.616;2023-01-25T01:27:41;96663.00;;;-0.09;90.04
9225;BME280;4647;48.072;11.616;2023-01-25T01:30:11;96658.75;;;-0.10;90.14
9225;BME280;4647;48.072;11.616;2023-01-25T01:32:40;96649.34;;;-0.16;90.19
9225;BME280;4647;48.072;11.616;2023-01-25T01:35:09;96648.28;;;-0.07;89.78
9225;BME280;4647;48.072;11.616;2023-01-25T01:37:40;96647.03;;;-0.01;89.55
9225;BME280;4647;48.072;11.616;2023-01-25T01:40:13;96645.97;;;0.01;89.49
9225;BME280;4647;48.072;11.616;2023-01-25T01:42:55;96653.47;;;-0.02;89.64
9225;BME280;4647;48.072;11.616;2023-01-25T01:45:50;96639.66;;;-0.04;89.54
9225;BME280;4647;48.072;11.616;2023-01-25T01:48:32;96644.03;;;-0.08;89.51
9225;BME280;4647;48.072;11.616;2023-01-25T01:51:12;96643.25;;;-0.08;89.63
9225;BME280;4647;48.072;11.616;2023-01-25T01:53:44;96641.19;;;-0.20;90.19
9225;BME280;4647;48.072;11.616;2023-01-25T01:56:20;96646.50;;;-0.20;89.96
9225;BME280;4647;48.072;11.616;2023-01-25T01:58:54;96648.56;;;-0.17;90.19
9225;BME280;4647;48.072;11.616;2023-01-25T02:01:23;96642.75;;;-0.19;90.41
9225;BME280;4647;48.072;11.616;2023-01-25T02:03:52;96651.06;;;-0.20;90.44
9225;BME280;4647;48.072;11.616;2023-01-25T02:06:27;96644.75;;;-0.24;90.64
9225;BME280;4647;48.072;11.616;2023-01-25T02:08:59;96645.53;;;-0.24;90.23
9225;BME280;4647;48.072;11.616;2023-01-25T02:11:32;96635.69;;;-0.23;90.32
9225;BME280;4647;48.072;11.616;2023-01-25T02:14:01;96639.63;;;-0.21;90.47
9225;BME280;4647;48.072;11.616;2023-01-25T02:16:31;96639.94;;;-0.22;89.88
9225;BME280;4647;48.072;11.616;2023-01-25T02:19:01;96642.63;;;-0.14;89.68
9225;BME280;4647;48.072;11.616;2023-01-25T02:21:40;96641.66;;;-0.18;90.09
9225;BME280;4647;48.072;11.616;2023-01-25T02:24:16;96636.47;;;-0.23;90.16
9225;BME280;4647;48.072;11.616;2023-01-25T02:26:50;96633.84;;;-0.14;90.16
9225;BME280;4647;48.072;11.616;2023-01-25T02:29:19;96637.31;;;-0.05;89.76
9225;BME280;4647;48.072;11.616;2023-01-25T02:31:58;96632.28;;;-0.07;89.88
9225;BME280;4647;48.072;11.616;2023-01-25T02:34:27;96634.16;;;-0.16;90.22
9225;BME280;4647;48.072;11.616;2023-01-25T02:36:55;96637.25;;;-0.22;90.38
9225;BME280;4647;48.072;11.616;2023-01-25T02:39:26;96638.03;;;-0.22;89.77
9225;BME280;4647;48.072;11.616;2023-01-25T02:41:57;96638.16;;;-0.27;90.02
9225;BME280;4647;48.072;11.616;2023-01-25T02:44:30;96626.31;;;-0.21;89.82
9225;BME280;4647;48.072;11.616;2023-01-25T02:46:59;96627.91;;;-0.11;89.44
9225;BME280;4647;48.072;11.616;2023-01-25T02:49:28;96614.88;;;-0.13;89.48
9225;BME280;4647;48.072;11.616;2023-01-25T02:51:57;96616.47;;;-0.12;89.52
9225;BME280;4647;48.072;11.616;2023-01-25T02:54:26;96607.53;;;-0.16;90.01
9225;BME280;4647;48.072;11.616;2023-01-25T02:56:57;96610.03;;;-0.11;89.81
9225;BME280;4647;48.072;11.616;2023-01-25T02:59:35;96619.75;;;-0.15;89.89
9225;BME280;4647;48.072;11.616;2023-01-25T03:02:04;96619.09;;;-0.20;90.40
9225;BME280;4647;48.072;11.616;2023-01-25T03:04:35;96618.00;;;-0.19;89.95
9225;BME280;4647;48.072;11.616;2023-01-25T03:07:04;96609.06;;;-0.23;89.86
9225;BME280;4647;48.072;11.616;2023-01-25T03:09:34;96606.25;;;-0.18;90.06
9225;BME280;4647;48.072;11.616;2023-01-25T03:12:06;96606.72;;;-0.16;89.88
9225;BME280;4647;48.072;11.616;2023-01-25T03:14:36;96605.19;;;-0.09;89.89
9225;BME280;4647;48.072;11.616;2023-01-25T03:17:08;96604.84;;;-0.16;89.82
9225;BME280;4647;48.072;11.616;2023-01-25T03:19:36;96604.72;;;-0.11;89.80
9225;BME280;4647;48.072;11.616;2023-01-25T03:22:05;96601.88;;;-0.14;90.00
9225;BME280;4647;48.072;11.616;2023-01-25T03:24:36;96598.59;;;-0.11;90.03
9225;BME280;4647;48.072;11.616;2023-01-25T03:27:08;96596.38;;;-0.18;89.63
9225;BME280;4647;48.072;11.616;2023-01-25T03:29:47;96595.78;;;-0.15;89.03
9225;BME280;4647;48.072;11.616;2023-01-25T03:32:20;96600.16;;;-0.19;89.10
9225;BME280;4647;48.072;11.616;2023-01-25T03:34:49;96598.56;;;-0.20;88.95
9225;BME280;4647;48.072;11.616;2023-01-25T03:37:18;96591.06;;;-0.18;88.77
9225;BME280;4647;48.072;11.616;2023-01-25T03:39:48;96603.75;;;-0.15;88.48
9225;BME280;4647;48.072;11.616;2023-01-25T03:42:21;96604.53;;;-0.23;88.57
9225;BME280;4647;48.072;11.616;2023-01-25T03:44:55;96597.59;;;-0.24;88.49
9225;BME280;4647;48.072;11.616;2023-01-25T03:47:24;96595.91;;;-0.20;88.51
9225;BME280;4647;48.072;11.616;2023-01-25T03:49:53;96597.13;;;-0.26;88.67
9225;BME280;4647;48.072;11.616;2023-01-25T03:52:22;96593.34;;;-0.34;88.81
9225;BME280;4647;48.072;11.616;2023-01-25T03:54:51;96595.34;;;-0.39;88.92
9225;BME280;4647;48.072;11.616;2023-01-25T03:57:23;96598.84;;;-0.30;88.92
9225;BME280;4647;48.072;11.616;2023-01-25T03:59:58;96599.44;;;-0.33;88.81
9225;BME280;4647;48.072;11.616;2023-01-25T04:02:28;96595.59;;;-0.18;88.87
9225;BME280;4647;48.072;11.616;2023-01-25T04:04:57;96592.63;;;-0.17;88.38
9225;BME280;4647;48.072;11.616;2023-01-25T04:07:26;96587.94;;;-0.20;88.70
9225;BME280;4647;48.072;11.616;2023-01-25T04:09:54;96602.66;;;-0.14;88.55
9225;BME280;4647;48.072;11.616;2023-01-25T04:12:25;96594.34;;;-0.21;88.62
9225;BME280;4647;48.072;11.616;2023-01-25T04:14:54;96602.91;;;-0.33;89.07
9225;BME280;4647;48.072;11.616;2023-01-25T04:17:24;96590.53;;;-0.28;88.86
9225;BME280;4647;48.072;11.616;2023-01-25T04:19:58;96589.41;;;-0.36;89.28
9225;BME280;4647;48.072;11.616;2023-01-25T04:22:34;96584.91;;;-0.27;89.28
9225;BME280;4647;48.072;11.616;2023-01-25T04:25:05;96575.72;;;-0.21;88.83
9225;BME280;4647;48.072;11.616;2023-01-25T04:27:40;96578.78;;;-0.27;89.51
9225;BME280;4647;48.072;11.616;2023-01-25T04:30:12;96574.09;;;-0.31;89.66
9225;BME280;4647;48.072;11.616;2023-01-25T04:32:43;96571.59;;;-0.27;89.52
9225;BME280;4647;48.072;11.616;2023-01-25T04:35:25;96576.41;;;-0.38;89.53
9225;BME280;4647;48.072;11.616;2023-01-25T04:37:54;96579.09;;;-0.29;89.30
9225;BME280;4647;48.072;11.616;2023-01-25T04:40:29;96577.38;;;-0.25;89.40
9225;BME280;4647;48.072;11.616;2023-01-25T04:43:01;96575.97;;;-0.31;89.06
9225;BME280;4647;48.072;11.616;2023-01-25T04:45:32;96567.50;;;-0.33;89.26
9225;BME280;4647;48.072;11.616;2023-01-25T04:48:05;96569.84;;;-0.32;89.02
9225;BME280;4647;48.072;11.616;2023-01-25T04:50:44;96568.94;;;-0.27;89.03
9225;BME280;4647;48.072;11.616;2023-01-25T04:53:13;96565.63;;;-0.24;88.96
9225;BME280;4647;48.072;11.616;2023-01-25T04:55:44;96565.16;;;-0.26;88.81
9225;BME280;4647;48.072;11.616;2023-01-25T04:58:16;96560.47;;;-0.29;88.64
9225;BME280;4647;48.072;11.616;2023-01-25T05:00:45;96557.63;;;-0.33;88.80
9225;BME280;4647;48.072;11.616;2023-01-25T05:03:14;96553.72;;;-0.26;88.60
9225;BME280;4647;48.072;11.616;2023-01-25T05:05:46;96545.28;;;-0.28;88.66
9225;BME280;4647;48.072;11.616;2023-01-25T05:08:21;96542.59;;;-0.28;88.43
9225;BME280;4647;48.072;11.616;2023-01-25T05:10:53;96542.97;;;-0.21;88.72
9225;BME280;4647;48.072;11.616;2023-01-25T05:13:31;96546.19;;;-0.33;88.49
9225;BME280;4647;48.072;11.616;2023-01-25T05:16:18;96550.28;;;-0.27;88.68
9225;BME280;4647;48.072;11.616;2023-01-25T05:18:48;96548.56;;;-0.32;88.84
9225;BME280;4647;48.072;11.616;2023-01-25T05:21:20;96546.06;;;-0.28;89.03
9225;BME280;4647;48.072;11.616;2023-01-25T05:24:03;96547.13;;;-0.38;88.65
9225;BME280;4647;48.072;11.616;2023-01-25T05:26:32;96541.03;;;-0.38;88.91
9225;BME280;4647;48.072;11.616;2023-01-25T05:29:16;96540.06;;;-0.42;88.75
9225;BME280;4647;48.072;11.616;2023-01-25T05:31:53;96532.25;;;-0.39;88.54
9225;BME280;4647;48.072;11.616;2023-01-25T05:34:21;96543.50;;;-0.42;88.99
9225;BME280;4647;48.072;11.616;2023-01-25T05:36:51;96535.38;;;-0.37;89.11
9225;BME280;4647;48.072;11.616;2023-01-25T05:39:20;96537.44;;;-0.25;89.01
9225;BME280;4647;48.072;11.616;2023-01-25T05:41:49;96537.44;;;-0.25;88.95
9225;BME280;4647;48.072;11.616;2023-01-25T05:44:21;96540.53;;;-0.40;88.79
9225;BME280;4647;48.072;11.616;2023-01-25T05:46:51;96537.75;;;-0.35;88.87
9225;BME280;4647;48.072;11.616;2023-01-25T05:49:20;96536.47;;;-0.46;89.06
9225;BME280;4647;48.072;11.616;2023-01-25T05:51:48;96537.44;;;-0.25;88.23
9225;BME280;4647;48.072;11.616;2023-01-25T05:54:19;96535.38;;;-0.37;88.76
9225;BME280;4647;48.072;11.616;2023-01-25T05:56:57;96540.88;;;-0.33;88.68
9225;BME280;4647;48.072;11.616;2023-01-25T05:59:28;96540.63;;;-0.14;88.12
9225;BME280;4647;48.072;11.616;2023-01-25T06:01:58;96534.66;;;-0.20;88.11
9225;BME280;4647;48.072;11.616;2023-01-25T06:04:27;96534.19;;;-0.22;88.32
9225;BME280;4647;48.072;11.616;2023-01-25T06:06:55;96531.66;;;-0.27;88.04
9225;BME280;4647;48.072;11.616;2023-01-25T06:09:24;96533.41;;;-0.14;88.58
9225;BME280;4647;48.072;11.616;2023-01-25T06:11:52;96529.03;;;-0.18;88.27
9225;BME280;4647;48.072;11.616;2023-01-25T06:14:22;96527.72;;;-0.29;88.50
9225;BME280;4647;48.072;11.616;2023-01-25T06:16:54;96522.75;;;-0.14;88.00
9225;BME280;4647;48.072;11.616;2023-01-25T06:19:22;96519.00;;;-0.13;87.96
9225;BME280;4647;48.072;11.616;2023-01-25T06:22:26;96522.44;;;-0.21;87.94
9225;BME280;4647;48.072;11.616;2023-01-25T06:24:55;96513.19;;;-0.23;88.13
9225;BME280;4647;48.072;11.616;2023-01-25T06:27:23;96509.72;;;-0.24;88.25
9225;BME280;4647;48.072;11.616;2023-01-25T06:29:52;96516.81;;;-0.19;88.25
9225;BME280;4647;48.072;11.616;2023-01-25T06:32:23;96523.22;;;-0.20;88.66
9225;BME280;4647;48.072;11.616;2023-01-25T06:34:52;96518.22;;;-0.22;88.39
9225;BME280;4647;48.072;11.616;2023-01-25T06:37:23;96518.34;;;-0.27;88.73
9225;BME280;4647;48.072;11.616;2023-01-25T06:39:52;96514.13;;;-0.19;88.33
9225;BME280;4647;48.072;11.616;2023-01-25T06:42:23;96515.34;;;-0.34;88.72
9225;BME280;4647;48.072;11.616;2023-01-25T06:44:51;96522.09;;;-0.28;87.52
9225;BME280;4647;48.072;11.616;2023-01-25T06:47:22;96510.66;;;-0.28;87.69
9225;BME280;4647;48.072;11.616;2023-01-25T06:49:51;96509.41;;;-0.31;87.85
9225;BME280;4647;48.072;11.616;2023-01-25T06:52:19;96510.81;;;-0.25;87.52
9225;BME280;4647;48.072;11.616;2023-01-25T06:54:48;96508.28;;;-0.39;87.88
9225;BME280;4647;48.072;11.616;2023-01-25T06:57:16;96506.25;;;-0.42;88.18
9225;BME280;4647;48.072;11.616;2023-01-25T06:59:45;96497.91;;;-0.49;88.36
9225;BME280;4647;48.072;11.616;2023-01-25T07:02:14;96488.03;;;-0.48;88.79
9225;BME280;4647;48.072;11.616;2023-01-25T07:04:45;96480.38;;;-0.50;88.87
9225;BME280;4647;48.072;11.616;2023-01-25T07:07:14;96484.00;;;-0.37;88.70
9225;BME280;4647;48.072;11.616;2023-01-25T07:09:42;96476.34;;;-0.39;88.43
9225;BME280;4647;48.072;11.616;2023-01-25T07:12:11;96477.13;;;-0.29;88.37
9225;BME280;4647;48.072;11.616;2023-01-25T07:14:39;96472.75;;;-0.25;88.35
9225;BME280;4647;48.072;11.616;2023-01-25T07:17:08;96479.00;;;-0.30;88.33
9225;BME280;4647;48.072;11.616;2023-01-25T07:19:37;96480.88;;;-0.31;88.38
9225;BME280;4647;48.072;11.616;2023-01-25T07:22:08;96483.88;;;-0.32;87.81
9225;BME280;4647;48.072;11.616;2023-01-25T07:24:36;96474.78;;;-0.31;88.54
9225;BME280;4647;48.072;11.616;2023-01-25T07:27:05;96480.72;;;-0.34;88.55
9225;BME280;4647;48.072;11.616;2023-01-25T07:29:33;96476.69;;;-0.23;88.61
9225;BME280;4647;48.072;11.616;2023-01-25T07:32:03;96471.97;;;-0.26;88.73
9225;BME280;4647;48.072;11.616;2023-01-25T07:34:32;96475.09;;;-0.24;88.23
9225;BME280;4647;48.072;11.616;2023-01-25T07:37:00;96469.78;;;-0.24;88.59
9225;BME280;4647;48.072;11.616;2023-01-25T07:39:31;96480.16;;;-0.22;88.48
9225;BME280;4647;48.072;11.616;2023-01-25T07:42:00;96487.94;;;-0.35;88.26
9225;BME280;4647;48.072;11.616;2023-01-25T07:44:31;96485.91;;;-0.38;87.74
9225;BME280;4647;48.072;11.616;2023-01-25T07:47:11;96479.31;;;-0.32;87.55
9225;BME280;4647;48.072;11.616;2023-01-25T07:49:40;96484.81;;;-0.28;87.17
9225;BME280;4647;48.072;11.616;2023-01-25T07:52:08;96475.72;;;-0.27;87.28
9225;BME280;4647;48.072;11.616;2023-01-25T07:54:40;96487.31;;;-0.32;87.63
9225;BME280;4647;48.072;11.616;2023-01-25T07:57:10;96489.03;;;-0.27;87.15
9225;BME280;4647;48.072;11.616;2023-01-25T07:59:38;96478.84;;;-0.25;86.90
9225;BME280;4647;48.072;11.616;2023-01-25T08:02:08;96483.72;;;-0.27;87.24
9225;BME280;4647;48.072;11.616;2023-01-25T08:04:37;96481.88;;;-0.18;86.72
9225;BME280;4647;48.072;11.616;2023-01-25T08:07:07;96474.97;;;-0.19;86.73
9225;BME280;4647;48.072;11.616;2023-01-25T08:09:39;96479.38;;;-0.06;86.71
9225;BME280;4647;48.072;11.616;2023-01-25T08:12:07;96482.34;;;-0.16;87.44
9225;BME280;4647;48.072;11.616;2023-01-25T08:14:36;96492.53;;;-0.18;87.63
9225;BME280;4647;48.072;11.616;2023-01-25T08:17:05;96476.69;;;-0.14;87.23
9225;BME280;4647;48.072;11.616;2023-01-25T08:19:33;96481.09;;;-0.18;87.40
9225;BME280;4647;48.072;11.616;2023-01-25T08:22:02;96478.75;;;-0.03;86.89
9225;BME280;4647;48.072;11.616;2023-01-25T08:24:30;96475.28;;;-0.03;86.90
9225;BME280;4647;48.072;11.616;2023-01-25T08:27:02;96474.97;;;-0.02;86.57
9225;BME280;4647;48.072;11.616;2023-01-25T08:29:30;96474.53;;;0.05;86.05
9225;BME280;4647;48.072;11.616;2023-01-25T08:31:59;96473.28;;;0.03;86.24
9225;BME280;4647;48.072;11.616;2023-01-25T08:34:28;96471.09;;;0.05;86.31
9225;BME280;4647;48.072;11.616;2023-01-25T08:36:57;96463.72;;;0.02;86.07
9225;BME280;4647;48.072;11.616;2023-01-25T08:39:26;96469.38;;;0.00;86.09
9225;BME280;4647;48.072;11.616;2023-01-25T08:41:55;96471.41;;;0.12;85.72
9225;BME280;4647;48.072;11.616;2023-01-25T08:44:26;96470.75;;;-0.03;86.44
9225;BME280;4647;48.072;11.616;2023-01-25T08:46:54;96468.56;;;-0.01;86.58
9225;BME280;4647;48.072;11.616;2023-01-25T08:49:23;96464.97;;;0.13;86.58
9225;BME280;4647;48.072;11.616;2023-01-25T08:51:52;96460.88;;;-0.02;86.29
9225;BME280;4647;48.072;11.616;2023-01-25T08:54:20;96458.72;;;0.09;86.29
9225;BME280;4647;48.072;11.616;2023-01-25T08:56:49;96462.59;;;-0.06;86.49
9225;BME280;4647;48.072;11.616;2023-01-25T08:59:17;96467.00;;;-0.02;86.60
9225;BME280;4647;48.072;11.616;2023-01-25T09:01:49;96460.09;;;-0.03;86.41
9225;BME280;4647;48.072;11.616;2023-01-25T09:04:17;96462.75;;;-0.11;86.21
9225;BME280;4647;48.072;11.616;2023-01-25T09:06:46;96449.28;;;-0.15;86.17
9225;BME280;4647;48.072;11.616;2023-01-25T09:09:14;96444.28;;;-0.16;86.27
9225;BME280;4647;48.072;11.616;2023-01-25T09:11:43;96445.69;;;-0.19;86.77
9225;BME280;4647;48.072;11.616;2023-01-25T09:14:12;96442.25;;;0.07;86.17
9225;BME280;4647;48.072;11.616;2023-01-25T09:16:40;96446.03;;;0.06;86.22
9225;BME280;4647;48.072;11.616;2023-01-25T09:19:12;96446.34;;;0.04;86.52
9225;BME280;4647;48.072;11.616;2023-01-25T09:21:41;96442.88;;;-0.14;86.90
9225;BME280;4647;48.072;11.616;2023-01-25T09:24:10;96440.19;;;-0.05;86.70
9225;BME280;4647;48.072;11.616;2023-01-25T09:26:40;96444.59;;;-0.18;87.14
9225;BME280;4647;48.072;11.616;2023-01-25T09:29:10;96441.91;;;-0.26;87.45
9225;BME280;4647;48.072;11.616;2023-01-25T09:31:39;96447.09;;;-0.21;87.15
9225;BME280;4647;48.072;11.616;2023-01-25T09:34:14;96445.53;;;-0.22;86.92
9225;BME280;4647;48.072;11.616;2023-01-25T09:36:43;96448.63;;;-0.29;87.43
9225;BME280;4647;48.072;11.616;2023-01-25T09:39:11;96445.81;;;-0.24;87.18
9225;BME280;4647;48.072;11.616;2023-01-25T09:42:12;96445.84;;;-0.15;87.52
9225;BME280;4647;48.072;11.616;2023-01-25T09:45:07;96439.69;;;-0.33;87.55
9225;BME280;4647;48.072;11.616;2023-01-25T09:47:44;96444.13;;;-0.20;87.59
9225;BME280;4647;48.072;11.616;2023-01-25T09:50:28;96435.50;;;-0.08;86.91
9225;BME280;4647;48.072;11.616;2023-01-25T09:53:19;96435.66;;;-0.13;87.15
9225;BME280;4647;48.072;11.616;2023-01-25T09:55:53;96443.81;;;-0.10;86.96
9225;BME280;4647;48.072;11.616;2023-01-25T09:58:28;96436.28;;;-0.08;86.57
9225;BME280;4647;48.072;11.616;2023-01-25T10:01:17;96431.75;;;-0.16;87.15
9225;BME280;4647;48.072;11.616;2023-01-25T10:03:56;96420.94;;;-0.11;87.00
9225;BME280;4647;48.072;11.616;2023-01-25T10:06:36;96422.66;;;-0.06;87.16
9225;BME280;4647;48.072;11.616;2023-01-25T10:09:14;96415.28;;;-0.01;86.53
9225;BME280;4647;48.072;11.616;2023-01-25T10:11:46;96416.22;;;-0.05;87.08
9225;BME280;4647;48.072;11.616;2023-01-25T10:14:17;96416.72;;;0.06;86.49
9225;BME280;4647;48.072;11.616;2023-01-25T10:16:58;96408.88;;;0.01;87.15
9225;BME280;4647;48.072;11.616;2023-01-25T10:19:40;96412.31;;;0.10;86.81
9225;BME280;4647;48.072;11.616;2023-01-25T10:22:16;96408.53;;;-0.07;86.47
9225;BME280;4647;48.072;11.616;2023-01-25T10:24:59;96399.78;;;-0.16;86.78
9225;BME280;4647;48.072;11.616;2023-01-25T10:27:37;96401.16;;;-0.27;87.19
9225;BME280;4647;48.072;11.616;2023-01-25T10:30:19;96403.56;;;0.01;86.34
9225;BME280;4647;48.072;11.616;2023-01-25T10:32:51;96394.91;;;-0.05;86.36
9225;BME280;4647;48.072;11.616;2023-01-25T10:35:26;96397.44;;;-0.17;86.05
9225;BME280;4647;48.072;11.616;2023-01-25T10:38:04;96395.72;;;-0.22;86.41
9225;BME280;4647;48.072;11.616;2023-01-25T10:40:39;96400.09;;;-0.09;86.09
9225;BME280;4647;48.072;11.616;2023-01-25T10:43:14;96394.31;;;-0.19;86.83
9225;BME280;4647;48.072;11.616;2023-01-25T10:45:44;96384.41;;;-0.02;86.48
9225;BME280;4647;48.072;11.616;2023-01-25T10:48:17;96381.63;;;0.04;86.41
9225;BME280;4647;48.072;11.616;2023-01-25T10:50:49;96383.63;;;-0.11;86.31
9225;BME280;4647;48.072;11.616;2023-01-25T10:53:32;96371.88;;;-0.10;86.41
9225;BME280;4647;48.072;11.616;2023-01-25T10:56:14;96372.84;;;0.03;86.51
9225;BME280;4647;48.072;11.616;2023-01-25T10:58:48;96364.84;;;-0.06;86.51
9225;BME280;4647;48.072;11.616;2023-01-25T11:01:27;96363.59;;;-0.17;86.37
9225;BME280;4647;48.072;11.616;2023-01-25T11:03:57;96351.38;;;-0.18;86.13
9225;BME280;4647;48.072;11.616;2023-01-25T11:06:32;96357.94;;;-0.07;85.74
9225;BME280;4647;48.072;11.616;2023-01-25T11:09:36;96349.50;;;-0.17;86.31
9225;BME280;4647;48.072;11.616;2023-01-25T11:12:15;96336.34;;;-0.22;86.53
9225;BME280;4647;48.072;11.616;2023-01-25T11:14:45;96339.28;;;-0.24;86.42
9225;BME280;4647;48.072;11.616;2023-01-25T11:17:24;96335.06;;;0.01;85.85
9225;BME280;4647;48.072;11.616;2023-01-25T11:20:16;96329.56;;;-0.03;86.08
9225;BME280;4647;48.072;11.616;2023-01-25T11:22:50;96333.34;;;-0.29;86.77
9225;BME280;4647;48.072;11.616;2023-01-25T11:25:30;96321.13;;;-0.05;86.42
9225;BME280;4647;48.072;11.616;2023-01-25T11:28:10;96322.97;;;0.12;85.66
9225;BME280;4647;48.072;11.616;2023-01-25T11:30:39;96318.78;;;-0.15;86.33
9225;BME280;4647;48.072;11.616;2023-01-25T11:33:09;96304.03;;;-0.04;85.77
9225;BME280;4647;48.072;11.616;2023-01-25T11:35:48;96308.28;;;-0.11;86.13
9225;BME280;4647;48.072;11.616;2023-01-25T11:38:22;96312.34;;;-0.05;85.72
9225;BME280;4647;48.072;11.616;2023-01-25T11:40:56;96309.81;;;-0.02;85.96
9225;BME280;4647;48.072;11.616;2023-01-25T11:43:49;96306.06;;;0.08;85.79
9225;BME280;4647;48.072;11.616;2023-01-25T11:46:38;96297.66;;;-0.20;86.19
9225;BME280;4647;48.072;11.616;2023-01-25T11:49:26;96299.16;;;0.07;85.59
9225;BME280;4647;48.072;11.616;2023-01-25T11:52:07;96290.09;;;-0.01;85.44
9225;BME280;4647;48.072;11.616;2023-01-25T11:54:50;96280.00;;;0.22;85.18
9225;BME280;4647;48.072;11.616;2023-01-25T11:57:40;96271.28;;;0.05;85.53
9225;BME280;4647;48.072;11.616;2023-01-25T12:03:42;96262.16;;;0.14;85.46
9225;BME280;4647;48.072;11.616;2023-01-25T12:06:20;96254.94;;;0.15;85.62
9225;BME280;4647;48.072;11.616;2023-01-25T12:09:05;96245.91;;;-0.02;85.93
9225;BME280;4647;48.072;11.616;2023-01-25T12:11:49;96237.75;;;-0.05;86.29
9225;BME280;4647;48.072;11.616;2023-01-25T12:14:31;96232.78;;;-0.15;86.75
9225;BME280;4647;48.072;11.616;2023-01-25T12:17:18;96231.94;;;0.10;85.90
9225;BME280;4647;48.072;11.616;2023-01-25T12:20:05;96223.78;;;0.07;86.32
9225;BME280;4647;48.072;11.616;2023-01-25T12:22:44;96224.53;;;0.16;85.90
9225;BME280;4647;48.072;11.616;2023-01-25T12:25:23;96219.66;;;0.18;86.06
9225;BME280;4647;48.072;11.616;2023-01-25T12:28:05;96221.97;;;-0.10;86.61
9225;BME280;4647;48.072;11.616;2023-01-25T12:30:44;96216.00;;;0.02;85.75
9225;BME280;4647;48.072;11.616;2023-01-25T12:33:19;96212.03;;;0.08;85.50
9225;BME280;4647;48.072;11.616;2023-01-25T12:35:53;96208.78;;;0.02;85.46
9225;BME280;4647;48.072;11.616;2023-01-25T12:38:28;96205.94;;;0.07;85.18
9225;BME280;4647;48.072;11.616;2023-01-25T12:41:04;96205.44;;;0.14;85.17
9225;BME280;4647;48.072;11.616;2023-01-25T12:43:39;96199.50;;;0.08;85.77
9225;BME280;4647;48.072;11.616;2023-01-25T12:46:16;96195.69;;;0.18;85.18
9225;BME280;4647;48.072;11.616;2023-01-25T12:48:51;96194.63;;;0.10;85.42
9225;BME280;4647;48.072;11.616;2023-01-25T12:51:23;96189.75;;;0.12;85.01
9225;BME280;4647;48.072;11.616;2023-01-25T12:53:57;96187.59;;;0.06;85.69
9225;BME280;4647;48.072;11.616;2023-01-25T12:56:31;96190.28;;;0.06;85.45
9225;BME280;4647;48.072;11.616;2023-01-25T12:59:10;96183.25;;;0.01;85.55
9225;BME280;4647;48.072;11.616;2023-01-25T13:01:49;96183.50;;;0.08;85.75
9225;BME280;4647;48.072;11.616;2023-01-25T13:04:34;96179.25;;;0.16;86.30
9225;BME280;4647;48.072;11.616;2023-01-25T13:07:11;96171.16;;;0.04;86.54
9225;BME280;4647;48.072;11.616;2023-01-25T13:09:48;96177.75;;;-0.03;86.59
9225;BME280;4647;48.072;11.616;2023-01-25T13:12:20;96174.41;;;0.09;85.99
9225;BME280;4647;48.072;11.616;2023-01-25T13:14:49;96171.50;;;-0.07;86.79
9225;BME280;4647;48.072;11.616;2023-01-25T13:17:28;96176.38;;;-0.09;86.48
9225;BME280;4647;48.072;11.616;2023-01-25T13:23:29;96171.25;;;0.16;85.25
9225;BME280;4647;48.072;11.616;2023-01-25T13:28:57;96174.19;;;-0.15;86.49
9225;BME280;4647;48.072;11.616;2023-01-25T13:31:42;96172.47;;;-0.11;86.23
9225;BME280;4647;48.072;11.616;2023-01-25T13:37:19;96164.97;;;-0.18;86.06
9225;BME280;4647;48.072;11.616;2023-01-25T13:39:50;96168.09;;;-0.16;86.12
9225;BME280;4647;48.072;11.616;2023-01-25T13:42:21;96162.25;;;-0.09;86.31
9225;BME280;4647;48.072;11.616;2023-01-25T13:44:52;96165.53;;;-0.04;85.45
9225;BME280;4647;48.072;11.616;2023-01-25T13:47:25;96159.78;;;-0.14;86.02
9225;BME280;4647;48.072;11.616;2023-01-25T13:50:00;96158.38;;;-0.12;85.57
9225;BME280;4647;48.072;11.616;2023-01-25T13:52:30;96152.38;;;-0.09;85.62
9225;BME280;4647;48.072;11.616;2023-01-25T13:55:00;96155.19;;;0.04;85.60
9225;BME280;4647;48.072;11.616;2023-01-25T13:57:30;96151.28;;;-0.08;86.47
9225;BME280;4647;48.072;11.616;2023-01-25T14:00:02;96144.91;;;-0.24;86.73
9225;BME280;4647;48.072;11.616;2023-01-25T14:02:32;96146.78;;;-0.16;86.91
9225;BME280;4647;48.072;11.616;2023-01-25T14:05:14;96142.75;;;-0.22;86.79
9225;BME280;4647;48.072;11.616;2023-01-25T14:07:46;96147.09;;;-0.17;86.92
9225;BME280;4647;48.072;11.616;2023-01-25T14:10:20;96139.91;;;-0.25;87.52
9225;BME280;4647;48.072;11.616;2023-01-25T14:12:51;96134.78;;;-0.31;87.61
9225;BME280;4647;48.072;11.616;2023-01-25T14:15:23;96138.66;;;-0.28;86.93